sensor_id;sensor_type;location;lat;lon;timestamp;P1;durP1;ratioP1;P2;durP2;ratioP2
75655;SDS011;64252;51.094;13.714;2023-05-10T00:02:08;6.47;;;1.73;;
75655;SDS011;64252;51.094;13.714;2023-05-10T00:04:33;4.28;;;1.63;;
75655;SDS011;64252;51.094;13.714;2023-05-10T00:06:59;6.53;;;1.40;;
75655;SDS011;64252;51.094;13.714;2023-05-10T00:09:24;3.53;;;1.48;;
75655;SDS011;64252;51.094;13.714;2023-05-10T00:11:50;6.13;;;1.88;;
75655;SDS011;64252;51.094;13.714;2023-05-10T00:14:16;4.38;;;1.38;;
75655;SDS011;64252;51.094;13.714;2023-05-10T00:16:42;4.93;;;1.70;;
75655;SDS011;64252;51.094;13.714;2023-05-10T00:19:07;4.50;;;1.60;;
75655;SDS011;64252;51.094;13.714;2023-05-10T00:21:33;5.72;;;1.67;;
75655;SDS011;64252;51.094;13.714;2023-05-10T00:23:59;4.97;;;1.67;;
75655;SDS011;64252;51.094;13.714;2023-05-10T00:26:25;4.75;;;1.65;;
75655;SDS011;64252;51.094;13.714;2023-05-10T00:28:53;2.80;;;1.30;;
75655;SDS011;64252;51.094;13.714;2023-05-10T00:31:19;3.55;;;1.60;;
75655;SDS011;64252;51.094;13.714;2023-05-10T00:33:45;3.45;;;1.60;;
75655;SDS011;64252;51.094;13.714;2023-05-10T00:36:10;3.40;;;1.65;;
75655;SDS011;64252;51.094;13.714;2023-05-10T00:38:37;3.90;;;1.73;;
75655;SDS011;64252;51.094;13.714;2023-05-10T00:41:03;2.60;;;1.30;;
75655;SDS011;64252;51.094;13.714;2023-05-10T00:43:32;3.90;;;1.58;;
75655;SDS011;64252;51.094;13.714;2023-05-10T00:45:58;3.90;;;1.60;;
75655;SDS011;64252;51.094;13.714;2023-05-10T00:48:24;5.47;;;2.03;;
75655;SDS011;64252;51.094;13.714;2023-05-10T00:50:49;4.47;;;1.83;;
75655;SDS011;64252;51.094;13.714;2023-05-10T00:53:15;3.13;;;1.38;;
75655;SDS011;64252;51.094;13.714;2023-05-10T00:55:42;3.60;;;1.40;;
75655;SDS011;64252;51.094;13.714;2023-05-10T00:58:07;5.80;;;1.77;;
75655;SDS011;64252;51.094;13.714;2023-05-10T01:00:33;3.40;;;1.50;;
75655;SDS011;64252;51.094;13.714;2023-05-10T01:03:00;2.72;;;1.40;;
75655;SDS011;64252;51.094;13.714;2023-05-10T01:05:26;4.93;;;1.83;;
75655;SDS011;64252;51.094;13.714;2023-05-10T01:07:52;3.35;;;1.60;;
75655;SDS011;64252;51.094;13.714;2023-05-10T01:10:18;2.92;;;1.30;;
75655;SDS011;64252;51.094;13.714;2023-05-10T01:12:45;2.90;;;1.50;;
75655;SDS011;64252;51.094;13.714;2023-05-10T01:17:40;5.05;;;1.27;;
75655;SDS011;64252;51.094;13.714;2023-05-10T01:20:08;5.55;;;2.00;;
75655;SDS011;64252;51.094;13.714;2023-05-10T01:28:13;4.43;;;1.75;;
75655;SDS011;64252;51.094;13.714;2023-05-10T01:33:46;4.35;;;1.30;;
75655;SDS011;64252;51.094;13.714;2023-05-10T01:50:01;3.28;;;1.38;;
75655;SDS011;64252;51.094;13.714;2023-05-10T01:52:30;4.05;;;1.50;;
75655;SDS011;64252;51.094;13.714;2023-05-10T01:55:04;3.30;;;1.45;;
75655;SDS011;64252;51.094;13.714;2023-05-10T01:57:33;2.83;;;1.40;;
75655;SDS011;64252;51.094;13.714;2023-05-10T02:00:02;5.50;;;1.52;;
75655;SDS011;64252;51.094;13.714;2023-05-10T02:02:40;3.40;;;1.40;;
75655;SDS011;64252;51.094;13.714;2023-05-10T02:05:10;4.00;;;1.50;;
75655;SDS011;64252;51.094;13.714;2023-05-10T02:07:38;5.60;;;1.70;;
75655;SDS011;64252;51.094;13.714;2023-05-10T02:10:06;6.35;;;1.65;;
75655;SDS011;64252;51.094;13.714;2023-05-10T02:12:39;4.07;;;1.58;;
75655;SDS011;64252;51.094;13.714;2023-05-10T02:15:08;3.67;;;1.63;;
75655;SDS011;64252;51.094;13.714;2023-05-10T02:17:37;3.47;;;1.42;;
75655;SDS011;64252;51.094;13.714;2023-05-10T02:20:04;3.65;;;1.58;;
75655;SDS011;64252;51.094;13.714;2023-05-10T02:22:33;3.72;;;1.58;;
75655;SDS011;64252;51.094;13.714;2023-05-10T02:25:01;3.80;;;1.50;;
75655;SDS011;64252;51.094;13.714;2023-05-10T02:27:28;4.28;;;1.40;;
75655;SDS011;64252;51.094;13.714;2023-05-10T02:29:55;3.15;;;1.50;;
75655;SDS011;64252;51.094;13.714;2023-05-10T02:32:22;3.70;;;1.50;;
75655;SDS011;64252;51.094;13.714;2023-05-10T02:34:51;7.18;;;1.23;;
75655;SDS011;64252;51.094;13.714;2023-05-10T02:37:20;5.20;;;1.80;;
75655;SDS011;64252;51.094;13.714;2023-05-10T02:39:50;3.35;;;1.50;;
75655;SDS011;64252;51.094;13.714;2023-05-10T02:42:22;2.90;;;1.52;;
75655;SDS011;64252;51.094;13.714;2023-05-10T02:44:51;3.45;;;1.42;;
75655;SDS011;64252;51.094;13.714;2023-05-10T02:49:45;5.00;;;1.40;;
75655;SDS011;64252;51.094;13.714;2023-05-10T02:52:11;4.30;;;1.60;;
75655;SDS011;64252;51.094;13.714;2023-05-10T02:54:45;4.82;;;1.30;;
75655;SDS011;64252;51.094;13.714;2023-05-10T02:57:16;2.78;;;1.30;;
75655;SDS011;64252;51.094;13.714;2023-05-10T02:59:47;4.32;;;1.63;;
75655;SDS011;64252;51.094;13.714;2023-05-10T03:02:13;3.13;;;1.52;;
75655;SDS011;64252;51.094;13.714;2023-05-10T03:04:38;3.15;;;1.48;;
75655;SDS011;64252;51.094;13.714;2023-05-10T03:07:04;4.85;;;1.67;;
75655;SDS011;64252;51.094;13.714;2023-05-10T03:09:30;3.13;;;1.20;;
75655;SDS011;64252;51.094;13.714;2023-05-10T03:14:59;5.40;;;1.48;;
75655;SDS011;64252;51.094;13.714;2023-05-10T03:17:36;3.17;;;1.50;;
75655;SDS011;64252;51.094;13.714;2023-05-10T03:20:11;6.25;;;1.80;;
75655;SDS011;64252;51.094;13.714;2023-05-10T03:22:43;3.85;;;1.48;;
75655;SDS011;64252;51.094;13.714;2023-05-10T03:25:12;4.60;;;1.70;;
75655;SDS011;64252;51.094;13.714;2023-05-10T03:27:41;3.42;;;1.40;;
75655;SDS011;64252;51.094;13.714;2023-05-10T03:30:10;4.20;;;1.65;;
75655;SDS011;64252;51.094;13.714;2023-05-10T03:32:37;3.83;;;1.45;;
75655;SDS011;64252;51.094;13.714;2023-05-10T03:35:10;3.78;;;1.70;;
75655;SDS011;64252;51.094;13.714;2023-05-10T03:37:37;6.13;;;2.30;;
75655;SDS011;64252;51.094;13.714;2023-05-10T03:40:02;2.75;;;1.20;;
75655;SDS011;64252;51.094;13.714;2023-05-10T03:42:31;4.28;;;1.30;;
75655;SDS011;64252;51.094;13.714;2023-05-10T03:44:57;3.50;;;1.33;;
75655;SDS011;64252;51.094;13.714;2023-05-10T03:47:23;2.85;;;1.50;;
75655;SDS011;64252;51.094;13.714;2023-05-10T03:49:49;3.90;;;1.60;;
75655;SDS011;64252;51.094;13.714;2023-05-10T03:52:14;2.97;;;1.45;;
75655;SDS011;64252;51.094;13.714;2023-05-10T03:54:40;5.80;;;1.40;;
75655;SDS011;64252;51.094;13.714;2023-05-10T03:57:06;4.03;;;1.30;;
75655;SDS011;64252;51.094;13.714;2023-05-10T03:59:32;5.25;;;1.50;;
75655;SDS011;64252;51.094;13.714;2023-05-10T04:01:57;3.80;;;1.17;;
75655;SDS011;64252;51.094;13.714;2023-05-10T04:04:23;3.78;;;1.15;;
75655;SDS011;64252;51.094;13.714;2023-05-10T04:06:49;4.63;;;1.27;;
75655;SDS011;64252;51.094;13.714;2023-05-10T04:09:15;3.40;;;1.30;;
75655;SDS011;64252;51.094;13.714;2023-05-10T04:11:41;3.35;;;1.58;;
75655;SDS011;64252;51.094;13.714;2023-05-10T04:14:07;3.05;;;1.40;;
75655;SDS011;64252;51.094;13.714;2023-05-10T04:16:32;3.08;;;1.40;;
75655;SDS011;64252;51.094;13.714;2023-05-10T04:18:58;3.03;;;1.40;;
75655;SDS011;64252;51.094;13.714;2023-05-10T04:21:24;4.05;;;1.60;;
75655;SDS011;64252;51.094;13.714;2023-05-10T04:23:50;4.95;;;1.65;;
75655;SDS011;64252;51.094;13.714;2023-05-10T04:26:16;3.17;;;1.60;;
75655;SDS011;64252;51.094;13.714;2023-05-10T04:28:42;3.38;;;1.60;;
75655;SDS011;64252;51.094;13.714;2023-05-10T04:31:08;5.22;;;1.70;;
75655;SDS011;64252;51.094;13.714;2023-05-10T04:33:34;5.55;;;1.60;;
75655;SDS011;64252;51.094;13.714;2023-05-10T04:36:01;4.38;;;1.60;;
75655;SDS011;64252;51.094;13.714;2023-05-10T04:38:27;5.57;;;1.70;;
75655;SDS011;64252;51.094;13.714;2023-05-10T04:40:53;5.13;;;1.35;;
75655;SDS011;64252;51.094;13.714;2023-05-10T04:43:19;3.13;;;1.35;;
75655;SDS011;64252;51.094;13.714;2023-05-10T04:45:45;5.05;;;1.58;;
75655;SDS011;64252;51.094;13.714;2023-05-10T04:48:15;4.15;;;1.55;;
75655;SDS011;64252;51.094;13.714;2023-05-10T04:50:40;3.35;;;1.40;;
75655;SDS011;64252;51.094;13.714;2023-05-10T04:53:06;4.68;;;1.60;;
75655;SDS011;64252;51.094;13.714;2023-05-10T04:55:32;3.58;;;1.60;;
75655;SDS011;64252;51.094;13.714;2023-05-10T04:57:57;3.90;;;1.38;;
75655;SDS011;64252;51.094;13.714;2023-05-10T05:00:24;3.33;;;1.27;;
75655;SDS011;64252;51.094;13.714;2023-05-10T05:02:50;2.80;;;1.40;;
75655;SDS011;64252;51.094;13.714;2023-05-10T05:05:16;4.82;;;1.60;;
75655;SDS011;64252;51.094;13.714;2023-05-10T05:07:42;3.80;;;1.33;;
75655;SDS011;64252;51.094;13.714;2023-05-10T05:10:08;2.80;;;1.40;;
75655;SDS011;64252;51.094;13.714;2023-05-10T05:12:34;3.15;;;1.33;;
75655;SDS011;64252;51.094;13.714;2023-05-10T05:15:01;3.60;;;1.92;;
75655;SDS011;64252;51.094;13.714;2023-05-10T05:17:29;3.75;;;1.20;;
75655;SDS011;64252;51.094;13.714;2023-05-10T05:19:55;3.97;;;1.40;;
75655;SDS011;64252;51.094;13.714;2023-05-10T05:22:21;5.88;;;1.60;;
75655;SDS011;64252;51.094;13.714;2023-05-10T05:24:53;4.35;;;1.42;;
75655;SDS011;64252;51.094;13.714;2023-05-10T05:27:23;2.85;;;1.10;;
75655;SDS011;64252;51.094;13.714;2023-05-10T05:29:54;2.70;;;1.15;;
75655;SDS011;64252;51.094;13.714;2023-05-10T05:32:20;2.70;;;1.13;;
75655;SDS011;64252;51.094;13.714;2023-05-10T05:34:46;3.50;;;1.30;;
75655;SDS011;64252;51.094;13.714;2023-05-10T05:37:15;4.45;;;1.33;;
75655;SDS011;64252;51.094;13.714;2023-05-10T05:39:41;3.60;;;1.40;;
75655;SDS011;64252;51.094;13.714;2023-05-10T05:42:12;4.45;;;1.23;;
75655;SDS011;64252;51.094;13.714;2023-05-10T05:44:38;3.22;;;1.40;;
75655;SDS011;64252;51.094;13.714;2023-05-10T05:47:05;5.80;;;1.40;;
75655;SDS011;64252;51.094;13.714;2023-05-10T05:49:32;3.55;;;1.48;;
75655;SDS011;64252;51.094;13.714;2023-05-10T05:52:03;3.58;;;1.23;;
75655;SDS011;64252;51.094;13.714;2023-05-10T05:54:33;34.35;;;5.75;;
75655;SDS011;64252;51.094;13.714;2023-05-10T05:56:59;53.30;;;9.20;;
75655;SDS011;64252;51.094;13.714;2023-05-10T05:59:25;26.30;;;5.72;;
75655;SDS011;64252;51.094;13.714;2023-05-10T06:01:51;5.30;;;1.45;;
75655;SDS011;64252;51.094;13.714;2023-05-10T06:04:18;3.28;;;1.65;;
75655;SDS011;64252;51.094;13.714;2023-05-10T06:06:43;4.82;;;1.80;;
75655;SDS011;64252;51.094;13.714;2023-05-10T06:09:09;2.70;;;1.40;;
75655;SDS011;64252;51.094;13.714;2023-05-10T06:11:35;6.88;;;1.83;;
75655;SDS011;64252;51.094;13.714;2023-05-10T06:14:02;3.97;;;1.50;;
75655;SDS011;64252;51.094;13.714;2023-05-10T06:16:29;4.30;;;1.30;;
75655;SDS011;64252;51.094;13.714;2023-05-10T06:18:55;3.17;;;1.40;;
75655;SDS011;64252;51.094;13.714;2023-05-10T06:21:21;6.45;;;1.40;;
75655;SDS011;64252;51.094;13.714;2023-05-10T06:23:47;5.30;;;1.33;;
75655;SDS011;64252;51.094;13.714;2023-05-10T06:26:13;3.85;;;1.70;;
75655;SDS011;64252;51.094;13.714;2023-05-10T06:28:39;4.25;;;1.45;;
75655;SDS011;64252;51.094;13.714;2023-05-10T06:31:05;4.78;;;1.42;;
75655;SDS011;64252;51.094;13.714;2023-05-10T06:33:31;10.80;;;1.60;;
75655;SDS011;64252;51.094;13.714;2023-05-10T06:35:57;3.10;;;1.52;;
75655;SDS011;64252;51.094;13.714;2023-05-10T06:38:24;4.53;;;1.30;;
75655;SDS011;64252;51.094;13.714;2023-05-10T06:40:50;3.83;;;1.40;;
75655;SDS011;64252;51.094;13.714;2023-05-10T06:43:15;5.65;;;1.55;;
75655;SDS011;64252;51.094;13.714;2023-05-10T06:45:41;3.90;;;1.55;;
75655;SDS011;64252;51.094;13.714;2023-05-10T06:48:07;3.78;;;1.45;;
75655;SDS011;64252;51.094;13.714;2023-05-10T06:50:33;6.10;;;1.90;;
75655;SDS011;64252;51.094;13.714;2023-05-10T06:52:59;3.85;;;1.45;;
75655;SDS011;64252;51.094;13.714;2023-05-10T06:55:25;4.78;;;1.70;;
75655;SDS011;64252;51.094;13.714;2023-05-10T06:57:51;2.95;;;1.20;;
75655;SDS011;64252;51.094;13.714;2023-05-10T07:00:18;7.28;;;1.60;;
75655;SDS011;64252;51.094;13.714;2023-05-10T07:02:44;3.63;;;1.27;;
75655;SDS011;64252;51.094;13.714;2023-05-10T07:05:10;4.25;;;1.60;;
75655;SDS011;64252;51.094;13.714;2023-05-10T07:07:35;3.70;;;1.30;;
75655;SDS011;64252;51.094;13.714;2023-05-10T07:10:01;5.93;;;1.80;;
75655;SDS011;64252;51.094;13.714;2023-05-10T07:12:27;9.80;;;1.77;;
75655;SDS011;64252;51.094;13.714;2023-05-10T07:14:53;6.38;;;1.52;;
75655;SDS011;64252;51.094;13.714;2023-05-10T07:17:18;4.85;;;1.42;;
75655;SDS011;64252;51.094;13.714;2023-05-10T07:19:44;5.05;;;1.45;;
75655;SDS011;64252;51.094;13.714;2023-05-10T07:22:10;2.92;;;1.23;;
75655;SDS011;64252;51.094;13.714;2023-05-10T07:24:35;5.82;;;1.42;;
75655;SDS011;64252;51.094;13.714;2023-05-10T07:27:01;9.32;;;1.60;;
75655;SDS011;64252;51.094;13.714;2023-05-10T07:29:27;4.07;;;1.42;;
75655;SDS011;64252;51.094;13.714;2023-05-10T07:31:53;5.43;;;1.65;;
75655;SDS011;64252;51.094;13.714;2023-05-10T07:34:19;4.38;;;1.35;;
75655;SDS011;64252;51.094;13.714;2023-05-10T07:36:45;3.97;;;1.45;;
75655;SDS011;64252;51.094;13.714;2023-05-10T07:39:12;7.13;;;1.42;;
75655;SDS011;64252;51.094;13.714;2023-05-10T07:41:37;4.95;;;1.60;;
75655;SDS011;64252;51.094;13.714;2023-05-10T07:44:04;4.18;;;1.60;;
75655;SDS011;64252;51.094;13.714;2023-05-10T07:46:31;3.70;;;1.73;;
75655;SDS011;64252;51.094;13.714;2023-05-10T07:48:56;5.15;;;1.52;;
75655;SDS011;64252;51.094;13.714;2023-05-10T07:51:22;3.55;;;1.40;;
75655;SDS011;64252;51.094;13.714;2023-05-10T07:53:47;10.27;;;1.90;;
75655;SDS011;64252;51.094;13.714;2023-05-10T07:59:09;4.65;;;2.13;;
75655;SDS011;64252;51.094;13.714;2023-05-10T08:01:35;3.75;;;2.00;;
75655;SDS011;64252;51.094;13.714;2023-05-10T08:04:01;7.25;;;2.35;;
75655;SDS011;64252;51.094;13.714;2023-05-10T08:06:27;3.75;;;1.90;;
75655;SDS011;64252;51.094;13.714;2023-05-10T08:08:55;6.28;;;2.08;;
75655;SDS011;64252;51.094;13.714;2023-05-10T08:13:49;4.47;;;1.60;;
75655;SDS011;64252;51.094;13.714;2023-05-10T08:16:16;3.58;;;1.63;;
75655;SDS011;64252;51.094;13.714;2023-05-10T08:18:43;4.75;;;1.77;;
75655;SDS011;64252;51.094;13.714;2023-05-10T08:21:10;4.50;;;1.80;;
75655;SDS011;64252;51.094;13.714;2023-05-10T08:23:36;5.93;;;2.00;;
75655;SDS011;64252;51.094;13.714;2023-05-10T08:26:02;5.32;;;1.77;;
75655;SDS011;64252;51.094;13.714;2023-05-10T08:28:28;8.50;;;1.80;;
75655;SDS011;64252;51.094;13.714;2023-05-10T08:30:53;7.13;;;1.73;;
75655;SDS011;64252;51.094;13.714;2023-05-10T08:33:19;7.95;;;2.13;;
75655;SDS011;64252;51.094;13.714;2023-05-10T08:35:45;3.38;;;1.67;;
75655;SDS011;64252;51.094;13.714;2023-05-10T08:38:11;7.00;;;2.10;;
75655;SDS011;64252;51.094;13.714;2023-05-10T08:40:38;5.75;;;2.05;;
75655;SDS011;64252;51.094;13.714;2023-05-10T08:43:08;5.05;;;1.77;;
75655;SDS011;64252;51.094;13.714;2023-05-10T08:45:38;5.97;;;1.90;;
75655;SDS011;64252;51.094;13.714;2023-05-10T08:48:07;6.65;;;1.80;;
75655;SDS011;64252;51.094;13.714;2023-05-10T08:50:36;5.90;;;1.80;;
75655;SDS011;64252;51.094;13.714;2023-05-10T08:53:04;4.25;;;2.00;;
75655;SDS011;64252;51.094;13.714;2023-05-10T08:55:32;6.03;;;1.60;;
75655;SDS011;64252;51.094;13.714;2023-05-10T08:57:59;3.20;;;1.60;;
75655;SDS011;64252;51.094;13.714;2023-05-10T09:00:25;4.97;;;1.63;;
75655;SDS011;64252;51.094;13.714;2023-05-10T09:02:52;5.25;;;1.70;;
75655;SDS011;64252;51.094;13.714;2023-05-10T09:05:18;5.53;;;1.77;;
75655;SDS011;64252;51.094;13.714;2023-05-10T09:07:44;5.28;;;1.85;;
75655;SDS011;64252;51.094;13.714;2023-05-10T09:10:10;4.20;;;1.80;;
75655;SDS011;64252;51.094;13.714;2023-05-10T09:12:38;4.85;;;1.83;;
75655;SDS011;64252;51.094;13.714;2023-05-10T09:15:04;3.92;;;1.90;;
75655;SDS011;64252;51.094;13.714;2023-05-10T09:17:31;3.63;;;1.80;;
75655;SDS011;64252;51.094;13.714;2023-05-10T09:19:59;6.40;;;2.03;;
75655;SDS011;64252;51.094;13.714;2023-05-10T09:22:25;7.32;;;2.00;;
75655;SDS011;64252;51.094;13.714;2023-05-10T09:25:11;5.65;;;2.33;;
75655;SDS011;64252;51.094;13.714;2023-05-10T09:27:39;5.80;;;2.20;;
75655;SDS011;64252;51.094;13.714;2023-05-10T09:30:06;6.35;;;1.90;;
75655;SDS011;64252;51.094;13.714;2023-05-10T09:32:39;5.95;;;2.10;;
75655;SDS011;64252;51.094;13.714;2023-05-10T09:35:07;6.00;;;1.92;;
75655;SDS011;64252;51.094;13.714;2023-05-10T09:37:40;5.95;;;2.08;;
75655;SDS011;64252;51.094;13.714;2023-05-10T09:40:07;5.07;;;2.33;;
75655;SDS011;64252;51.094;13.714;2023-05-10T09:42:36;5.40;;;1.95;;
75655;SDS011;64252;51.094;13.714;2023-05-10T09:45:06;3.67;;;1.95;;
75655;SDS011;64252;51.094;13.714;2023-05-10T09:47:32;9.25;;;2.30;;
75655;SDS011;64252;51.094;13.714;2023-05-10T09:49:59;6.25;;;2.00;;
75655;SDS011;64252;51.094;13.714;2023-05-10T09:52:45;4.82;;;2.00;;
75655;SDS011;64252;51.094;13.714;2023-05-10T09:55:11;4.18;;;1.90;;
75655;SDS011;64252;51.094;13.714;2023-05-10T09:57:37;7.65;;;2.13;;
75655;SDS011;64252;51.094;13.714;2023-05-10T10:00:03;3.80;;;1.92;;
75655;SDS011;64252;51.094;13.714;2023-05-10T10:02:39;5.25;;;2.08;;
75655;SDS011;64252;51.094;13.714;2023-05-10T10:05:06;4.53;;;2.15;;
75655;SDS011;64252;51.094;13.714;2023-05-10T10:07:32;5.60;;;1.92;;
75655;SDS011;64252;51.094;13.714;2023-05-10T10:09:58;8.43;;;1.95;;
75655;SDS011;64252;51.094;13.714;2023-05-10T10:12:24;5.88;;;2.08;;
75655;SDS011;64252;51.094;13.714;2023-05-10T10:14:50;4.78;;;2.15;;
75655;SDS011;64252;51.094;13.714;2023-05-10T10:17:16;4.90;;;2.05;;
75655;SDS011;64252;51.094;13.714;2023-05-10T10:19:42;4.45;;;1.92;;
75655;SDS011;64252;51.094;13.714;2023-05-10T10:22:09;4.82;;;2.13;;
75655;SDS011;64252;51.094;13.714;2023-05-10T10:24:38;5.93;;;2.60;;
75655;SDS011;64252;51.094;13.714;2023-05-10T10:27:21;6.47;;;2.20;;
75655;SDS011;64252;51.094;13.714;2023-05-10T10:30:09;4.05;;;2.03;;
75655;SDS011;64252;51.094;13.714;2023-05-10T10:35:31;6.15;;;1.92;;
75655;SDS011;64252;51.094;13.714;2023-05-10T10:37:59;9.25;;;2.63;;
75655;SDS011;64252;51.094;13.714;2023-05-10T10:42:58;7.18;;;2.40;;
75655;SDS011;64252;51.094;13.714;2023-05-10T10:46:09;3.58;;;1.80;;
75655;SDS011;64252;51.094;13.714;2023-05-10T10:48:49;5.78;;;2.17;;
75655;SDS011;64252;51.094;13.714;2023-05-10T10:51:36;5.00;;;2.42;;
75655;SDS011;64252;51.094;13.714;2023-05-10T10:54:11;4.38;;;2.03;;
75655;SDS011;64252;51.094;13.714;2023-05-10T10:56:37;4.75;;;2.15;;
75655;SDS011;64252;51.094;13.714;2023-05-10T10:59:03;4.25;;;2.15;;
75655;SDS011;64252;51.094;13.714;2023-05-10T11:01:34;5.60;;;2.00;;
75655;SDS011;64252;51.094;13.714;2023-05-10T11:06:29;4.93;;;2.13;;
75655;SDS011;64252;51.094;13.714;2023-05-10T11:08:56;5.13;;;2.10;;
75655;SDS011;64252;51.094;13.714;2023-05-10T11:11:22;4.93;;;2.47;;
75655;SDS011;64252;51.094;13.714;2023-05-10T11:13:48;8.30;;;2.17;;
75655;SDS011;64252;51.094;13.714;2023-05-10T11:18:41;3.90;;;1.80;;
75655;SDS011;64252;51.094;13.714;2023-05-10T11:21:18;3.92;;;2.22;;
75655;SDS011;64252;51.094;13.714;2023-05-10T11:26:12;5.78;;;2.30;;
75655;SDS011;64252;51.094;13.714;2023-05-10T11:28:41;6.93;;;2.33;;
75655;SDS011;64252;51.094;13.714;2023-05-10T11:31:07;5.03;;;2.38;;
75655;SDS011;64252;51.094;13.714;2023-05-10T11:33:54;6.10;;;2.50;;
75655;SDS011;64252;51.094;13.714;2023-05-10T11:36:20;6.30;;;2.53;;
75655;SDS011;64252;51.094;13.714;2023-05-10T11:38:49;4.07;;;2.38;;
75655;SDS011;64252;51.094;13.714;2023-05-10T11:41:16;5.55;;;2.50;;
75655;SDS011;64252;51.094;13.714;2023-05-10T11:43:43;6.47;;;2.40;;
75655;SDS011;64252;51.094;13.714;2023-05-10T11:46:12;3.65;;;2.20;;
75655;SDS011;64252;51.094;13.714;2023-05-10T11:48:39;4.70;;;2.33;;
75655;SDS011;64252;51.094;13.714;2023-05-10T11:51:05;5.25;;;1.90;;
75655;SDS011;64252;51.094;13.714;2023-05-10T11:53:32;10.20;;;2.05;;
75655;SDS011;64252;51.094;13.714;2023-05-10T12:00:59;5.47;;;2.40;;
75655;SDS011;64252;51.094;13.714;2023-05-10T12:03:25;4.95;;;2.13;;
75655;SDS011;64252;51.094;13.714;2023-05-10T12:05:52;4.88;;;2.20;;
75655;SDS011;64252;51.094;13.714;2023-05-10T12:08:20;3.40;;;2.22;;
75655;SDS011;64252;51.094;13.714;2023-05-10T12:10:54;5.45;;;2.15;;
75655;SDS011;64252;51.094;13.714;2023-05-10T12:13:30;4.95;;;2.00;;
75655;SDS011;64252;51.094;13.714;2023-05-10T12:15:58;7.28;;;2.92;;
75655;SDS011;64252;51.094;13.714;2023-05-10T12:18:24;5.35;;;2.03;;
75655;SDS011;64252;51.094;13.714;2023-05-10T12:20:53;3.78;;;2.03;;
75655;SDS011;64252;51.094;13.714;2023-05-10T12:23:19;5.22;;;1.95;;
75655;SDS011;64252;51.094;13.714;2023-05-10T12:25:45;4.95;;;2.20;;
75655;SDS011;64252;51.094;13.714;2023-05-10T12:28:12;7.43;;;2.13;;
75655;SDS011;64252;51.094;13.714;2023-05-10T12:30:38;6.10;;;2.10;;
75655;SDS011;64252;51.094;13.714;2023-05-10T12:33:08;4.18;;;2.17;;
75655;SDS011;64252;51.094;13.714;2023-05-10T12:35:45;4.25;;;1.90;;
75655;SDS011;64252;51.094;13.714;2023-05-10T12:38:37;4.07;;;1.90;;
75655;SDS011;64252;51.094;13.714;2023-05-10T12:41:05;6.85;;;2.00;;
75655;SDS011;64252;51.094;13.714;2023-05-10T12:43:32;5.82;;;1.83;;
75655;SDS011;64252;51.094;13.714;2023-05-10T12:46:03;4.65;;;2.03;;
75655;SDS011;64252;51.094;13.714;2023-05-10T12:48:32;6.03;;;2.08;;
75655;SDS011;64252;51.094;13.714;2023-05-10T12:50:59;3.50;;;1.95;;
75655;SDS011;64252;51.094;13.714;2023-05-10T12:53:25;4.90;;;1.80;;
75655;SDS011;64252;51.094;13.714;2023-05-10T12:55:52;5.97;;;2.45;;
75655;SDS011;64252;51.094;13.714;2023-05-10T12:58:18;4.95;;;2.50;;
75655;SDS011;64252;51.094;13.714;2023-05-10T13:00:43;7.70;;;2.00;;
75655;SDS011;64252;51.094;13.714;2023-05-10T13:03:09;4.22;;;1.95;;
75655;SDS011;64252;51.094;13.714;2023-05-10T13:05:35;5.57;;;2.03;;
75655;SDS011;64252;51.094;13.714;2023-05-10T13:08:01;3.42;;;2.03;;
75655;SDS011;64252;51.094;13.714;2023-05-10T13:10:28;3.92;;;2.05;;
75655;SDS011;64252;51.094;13.714;2023-05-10T13:12:56;4.30;;;1.65;;
75655;SDS011;64252;51.094;13.714;2023-05-10T13:15:22;7.53;;;1.73;;
75655;SDS011;64252;51.094;13.714;2023-05-10T13:17:47;5.60;;;2.17;;
75655;SDS011;64252;51.094;13.714;2023-05-10T13:20:13;3.47;;;1.88;;
75655;SDS011;64252;51.094;13.714;2023-05-10T13:22:40;5.85;;;1.77;;
75655;SDS011;64252;51.094;13.714;2023-05-10T13:25:06;5.35;;;2.20;;
75655;SDS011;64252;51.094;13.714;2023-05-10T13:27:33;8.02;;;2.40;;
75655;SDS011;64252;51.094;13.714;2023-05-10T13:29:58;4.05;;;1.98;;
75655;SDS011;64252;51.094;13.714;2023-05-10T13:32:24;4.68;;;1.98;;
75655;SDS011;64252;51.094;13.714;2023-05-10T13:34:51;5.97;;;1.90;;
75655;SDS011;64252;51.094;13.714;2023-05-10T13:37:16;5.88;;;2.00;;
75655;SDS011;64252;51.094;13.714;2023-05-10T13:39:42;5.60;;;2.40;;
75655;SDS011;64252;51.094;13.714;2023-05-10T13:42:08;6.30;;;2.20;;
75655;SDS011;64252;51.094;13.714;2023-05-10T13:44:33;7.07;;;2.20;;
75655;SDS011;64252;51.094;13.714;2023-05-10T13:46:59;5.55;;;2.08;;
75655;SDS011;64252;51.094;13.714;2023-05-10T13:49:25;4.43;;;2.22;;
75655;SDS011;64252;51.094;13.714;2023-05-10T13:51:51;4.65;;;2.15;;
75655;SDS011;64252;51.094;13.714;2023-05-10T13:54:17;3.67;;;1.90;;
75655;SDS011;64252;51.094;13.714;2023-05-10T13:56:45;4.63;;;1.92;;
75655;SDS011;64252;51.094;13.714;2023-05-10T13:59:12;4.05;;;2.00;;
75655;SDS011;64252;51.094;13.714;2023-05-10T14:01:39;4.32;;;2.05;;
75655;SDS011;64252;51.094;13.714;2023-05-10T14:04:05;5.57;;;2.22;;
75655;SDS011;64252;51.094;13.714;2023-05-10T14:06:31;5.00;;;2.10;;
75655;SDS011;64252;51.094;13.714;2023-05-10T14:08:57;4.95;;;2.10;;
75655;SDS011;64252;51.094;13.714;2023-05-10T14:11:22;6.18;;;2.13;;
75655;SDS011;64252;51.094;13.714;2023-05-10T14:13:48;3.42;;;1.90;;
75655;SDS011;64252;51.094;13.714;2023-05-10T14:16:14;4.30;;;2.10;;
75655;SDS011;64252;51.094;13.714;2023-05-10T14:18:40;5.43;;;2.13;;
75655;SDS011;64252;51.094;13.714;2023-05-10T14:21:05;4.45;;;2.30;;
75655;SDS011;64252;51.094;13.714;2023-05-10T14:23:31;5.32;;;1.75;;
75655;SDS011;64252;51.094;13.714;2023-05-10T14:25:56;6.07;;;1.85;;
75655;SDS011;64252;51.094;13.714;2023-05-10T14:28:22;3.67;;;1.98;;
75655;SDS011;64252;51.094;13.714;2023-05-10T14:30:48;4.13;;;1.73;;
75655;SDS011;64252;51.094;13.714;2023-05-10T14:33:14;5.88;;;2.03;;
75655;SDS011;64252;51.094;13.714;2023-05-10T14:35:40;5.13;;;2.05;;
75655;SDS011;64252;51.094;13.714;2023-05-10T14:38:07;3.28;;;1.88;;
75655;SDS011;64252;51.094;13.714;2023-05-10T14:40:32;4.18;;;1.83;;
75655;SDS011;64252;51.094;13.714;2023-05-10T14:42:58;6.75;;;1.90;;
75655;SDS011;64252;51.094;13.714;2023-05-10T14:45:24;4.50;;;1.58;;
75655;SDS011;64252;51.094;13.714;2023-05-10T14:47:49;7.85;;;1.90;;
75655;SDS011;64252;51.094;13.714;2023-05-10T14:50:15;3.10;;;1.77;;
75655;SDS011;64252;51.094;13.714;2023-05-10T14:52:42;4.68;;;2.20;;
75655;SDS011;64252;51.094;13.714;2023-05-10T14:55:07;4.40;;;2.20;;
75655;SDS011;64252;51.094;13.714;2023-05-10T14:57:33;3.65;;;1.92;;
75655;SDS011;64252;51.094;13.714;2023-05-10T14:59:59;6.40;;;2.30;;
75655;SDS011;64252;51.094;13.714;2023-05-10T15:02:24;3.63;;;1.83;;
75655;SDS011;64252;51.094;13.714;2023-05-10T15:04:50;4.82;;;2.10;;
75655;SDS011;64252;51.094;13.714;2023-05-10T15:07:16;3.63;;;2.22;;
75655;SDS011;64252;51.094;13.714;2023-05-10T15:09:43;3.70;;;2.03;;
75655;SDS011;64252;51.094;13.714;2023-05-10T15:12:14;4.78;;;1.98;;
75655;SDS011;64252;51.094;13.714;2023-05-10T15:14:40;3.83;;;1.85;;
75655;SDS011;64252;51.094;13.714;2023-05-10T15:17:06;4.70;;;1.77;;
75655;SDS011;64252;51.094;13.714;2023-05-10T15:19:32;3.38;;;1.75;;
75655;SDS011;64252;51.094;13.714;2023-05-10T15:21:58;4.10;;;1.80;;
75655;SDS011;64252;51.094;13.714;2023-05-10T15:24:24;3.08;;;1.90;;
75655;SDS011;64252;51.094;13.714;2023-05-10T15:26:50;3.92;;;1.77;;
75655;SDS011;64252;51.094;13.714;2023-05-10T15:29:15;2.88;;;1.58;;